createdAt,value
2018-05-25T00:00:36.346Z,15.63
2018-05-25T00:03:03.850Z,15.27
2018-05-25T00:05:32.245Z,14.20
2018-05-25T00:07:59.742Z,14.33
2018-05-25T00:10:27.224Z,14.50
2018-05-25T00:12:54.783Z,15.67
2018-05-25T00:15:22.262Z,16.47
2018-05-25T00:17:49.742Z,14.73
2018-05-25T00:20:17.260Z,15.70
2018-05-25T00:22:44.740Z,14.83
2018-05-25T00:25:12.242Z,17.60
2018-05-25T00:27:39.716Z,17.70
2018-05-25T00:30:07.210Z,16.60
2018-05-25T00:32:34.690Z,15.53
2018-05-25T00:35:02.182Z,16.40
2018-05-25T00:37:29.655Z,16.60
2018-05-25T00:39:57.146Z,16.33
2018-05-25T00:42:24.614Z,18.43
2018-05-25T00:44:52.118Z,18.13
2018-05-25T00:47:19.594Z,18.67
2018-05-25T00:49:47.111Z,18.37
2018-05-25T00:52:14.587Z,18.47
2018-05-25T00:57:35.319Z,19.47
2018-05-25T01:00:02.823Z,18.97
2018-05-25T01:02:30.293Z,19.87
2018-05-25T01:04:57.833Z,19.30
2018-05-25T01:07:25.330Z,19.93
2018-05-25T01:09:52.793Z,20.93
2018-05-25T01:12:20.281Z,19.93
2018-05-25T01:14:47.759Z,20.17
2018-05-25T01:17:15.257Z,21.30
2018-05-25T01:19:42.734Z,19.90
2018-05-25T01:22:10.230Z,19.77
2018-05-25T01:24:37.713Z,21.03
2018-05-25T01:27:05.211Z,20.57
2018-05-25T01:29:32.685Z,20.60
2018-05-25T01:32:00.174Z,22.00
2018-05-25T01:34:27.646Z,20.90
2018-05-25T01:36:55.123Z,20.73
2018-05-25T01:39:22.626Z,22.93
2018-05-25T01:41:50.114Z,22.40
2018-05-25T01:44:17.609Z,23.30
2018-05-25T01:46:45.094Z,22.77
2018-05-25T01:49:12.582Z,23.77
2018-05-25T01:51:40.069Z,22.37
2018-05-25T01:54:07.562Z,22.53
2018-05-25T01:56:35.046Z,22.23
2018-05-25T01:59:03.174Z,22.23
2018-05-25T02:01:30.714Z,22.47
2018-05-25T02:03:58.224Z,22.87
2018-05-25T02:06:25.699Z,22.63
2018-05-25T02:08:53.188Z,23.90
2018-05-25T02:11:20.687Z,24.13
2018-05-25T02:13:48.162Z,23.60
2018-05-25T02:16:15.670Z,23.70
2018-05-25T02:18:43.669Z,25.20
2018-05-25T02:21:11.162Z,27.17
2018-05-25T02:23:38.644Z,25.17
2018-05-25T02:26:07.086Z,26.73
2018-05-25T02:28:34.579Z,26.40
2018-05-25T02:31:02.082Z,27.03
2018-05-25T02:33:29.559Z,26.90
2018-05-25T02:35:57.070Z,26.23
2018-05-25T02:38:24.549Z,25.97
2018-05-25T02:40:52.030Z,25.03
2018-05-25T02:43:19.520Z,24.80
2018-05-25T02:45:46.999Z,24.27
2018-05-25T02:48:14.533Z,21.77
2018-05-25T02:50:41.994Z,23.20
2018-05-25T02:53:09.486Z,21.37
2018-05-25T02:55:36.962Z,19.77
2018-05-25T02:58:04.449Z,20.63
2018-05-25T03:00:31.927Z,20.30
2018-05-25T03:02:59.486Z,20.63
2018-05-25T03:05:26.958Z,21.90
2018-05-25T03:07:54.463Z,22.57
2018-05-25T03:10:21.938Z,22.33
2018-05-25T03:12:49.418Z,22.93
2018-05-25T03:15:16.905Z,23.03
2018-05-25T03:17:44.382Z,24.70
2018-05-25T03:20:11.904Z,26.07
2018-05-25T03:22:39.378Z,33.15
2018-05-25T03:25:06.975Z,27.70
2018-05-25T03:27:34.445Z,28.13
2018-05-25T03:30:01.930Z,27.33
2018-05-25T03:32:29.418Z,27.73
2018-05-25T03:34:56.910Z,29.83
2018-05-25T03:37:24.381Z,28.50
2018-05-25T03:40:09.641Z,28.90
2018-05-25T03:42:37.118Z,28.53
2018-05-25T03:45:04.665Z,29.13
2018-05-25T03:47:32.166Z,29.00
2018-05-25T03:49:59.663Z,30.00
2018-05-25T03:52:27.146Z,30.10
2018-05-25T03:54:54.637Z,27.90
2018-05-25T03:57:22.109Z,29.87
2018-05-25T04:00:01.351Z,29.33
2018-05-25T04:02:28.830Z,28.27
2018-05-25T04:04:56.314Z,26.60
2018-05-25T04:07:23.813Z,25.67
2018-05-25T04:09:51.286Z,25.77
2018-05-25T04:12:18.778Z,26.07
2018-05-25T04:14:46.254Z,27.70
2018-05-25T04:17:13.745Z,25.57
2018-05-25T04:19:41.218Z,25.73
2018-05-25T04:22:08.706Z,26.33
2018-05-25T04:24:36.182Z,26.33
2018-05-25T04:27:03.677Z,26.30
2018-05-25T04:29:31.150Z,25.43
2018-05-25T04:31:58.641Z,25.93
2018-05-25T04:34:26.125Z,29.97
2018-05-25T04:36:53.621Z,30.80
2018-05-25T04:39:21.094Z,29.97
2018-05-25T04:41:48.593Z,27.23
2018-05-25T04:44:16.070Z,27.00
2018-05-25T04:46:44.527Z,26.60
2018-05-25T04:49:12.003Z,25.80
2018-05-25T04:51:39.490Z,24.50
2018-05-25T04:54:06.966Z,24.40
2018-05-25T04:56:34.462Z,25.17
2018-05-25T04:59:01.953Z,25.93
2018-05-25T05:01:29.453Z,25.80
2018-05-25T05:03:56.925Z,27.23
2018-05-25T05:06:24.430Z,24.83
2018-05-25T05:08:52.134Z,26.13
2018-05-25T05:11:19.849Z,26.67
2018-05-25T05:13:47.359Z,25.77
2018-05-25T05:16:14.865Z,26.70
2018-05-25T05:18:42.337Z,27.97
2018-05-25T05:21:10.170Z,26.90
2018-05-25T05:23:37.647Z,27.43
2018-05-25T05:26:05.159Z,27.57
2018-05-25T05:28:32.678Z,26.93
2018-05-25T05:31:00.149Z,27.07
2018-05-25T05:33:27.647Z,26.70
2018-05-25T05:35:55.126Z,26.33
2018-05-25T05:38:22.622Z,26.67
2018-05-25T05:40:50.111Z,28.90
2018-05-25T05:43:17.619Z,27.97
2018-05-25T05:46:07.330Z,25.93
2018-05-25T05:48:34.830Z,26.43
2018-05-25T05:51:02.309Z,25.07
2018-05-25T05:53:29.813Z,25.73
2018-05-25T05:55:57.294Z,24.83
2018-05-25T05:58:24.786Z,26.07
2018-05-25T06:00:53.008Z,26.00
2018-05-25T06:03:20.504Z,26.43
2018-05-25T06:05:48.072Z,23.80
2018-05-25T06:08:15.574Z,24.03
2018-05-25T06:10:43.058Z,23.53
2018-05-25T06:13:10.561Z,23.83
2018-05-25T06:15:38.099Z,24.13
2018-05-25T06:18:05.637Z,23.33
2018-05-25T06:20:33.116Z,22.33
2018-05-25T06:23:00.627Z,21.10
2018-05-25T06:25:28.152Z,21.87
2018-05-25T06:27:55.624Z,22.33
2018-05-25T06:30:23.089Z,22.30
2018-05-25T06:32:50.585Z,22.10
2018-05-25T06:35:18.055Z,21.27
2018-05-25T06:37:45.565Z,23.27
2018-05-25T06:40:13.041Z,22.43
2018-05-25T06:42:40.535Z,23.47
2018-05-25T06:45:08.016Z,23.20
2018-05-25T06:47:35.514Z,22.10
2018-05-25T06:50:02.997Z,22.57
2018-05-25T06:52:30.504Z,22.80
2018-05-25T06:54:57.977Z,21.83
2018-05-25T06:57:26.308Z,21.33
2018-05-25T06:59:53.920Z,21.33
2018-05-25T07:02:21.398Z,21.00
2018-05-25T07:04:48.885Z,21.07
2018-05-25T07:07:16.366Z,20.60
2018-05-25T07:09:43.862Z,19.17
2018-05-25T07:12:11.334Z,19.13
2018-05-25T07:14:38.836Z,19.40
2018-05-25T07:17:06.334Z,18.43
2018-05-25T07:19:33.832Z,18.77
2018-05-25T07:22:01.298Z,19.00
2018-05-25T07:24:28.792Z,18.67
2018-05-25T07:26:56.265Z,16.50
2018-05-25T07:29:23.754Z,16.50
2018-05-25T07:32:05.774Z,17.20
2018-05-25T07:34:33.284Z,15.80
2018-05-25T07:37:00.765Z,17.53
2018-05-25T07:39:28.263Z,15.27
2018-05-25T07:41:55.737Z,16.47
2018-05-25T07:44:23.237Z,16.07
2018-05-25T07:46:50.714Z,14.83
2018-05-25T07:49:18.301Z,14.60
2018-05-25T07:51:45.769Z,13.23
2018-05-25T07:54:13.265Z,14.60
2018-05-25T07:56:40.742Z,13.70
2018-05-25T07:59:08.240Z,15.37
2018-05-25T08:01:35.725Z,14.60
2018-05-25T08:04:03.218Z,14.27
2018-05-25T08:06:30.690Z,15.13
2018-05-25T08:08:58.198Z,13.53
2018-05-25T08:11:25.683Z,13.17
2018-05-25T08:13:53.176Z,11.73
2018-05-25T08:16:20.641Z,12.63
2018-05-25T08:18:48.138Z,12.53
2018-05-25T08:21:15.723Z,11.50
2018-05-25T08:23:43.295Z,12.40
2018-05-25T08:29:04.153Z,9.40
2018-05-25T08:31:31.640Z,8.90
2018-05-25T08:33:59.142Z,9.33
2018-05-25T08:36:26.614Z,9.07
2018-05-25T08:38:54.087Z,9.33
2018-05-25T08:41:21.574Z,9.17
2018-05-25T08:43:49.038Z,9.30
2018-05-25T08:46:16.530Z,9.33
2018-05-25T08:48:43.995Z,7.60
2018-05-25T08:51:11.539Z,7.27
2018-05-25T08:53:38.954Z,8.20
2018-05-25T08:56:06.443Z,7.83
2018-05-25T08:58:33.916Z,8.23
2018-05-25T09:01:01.428Z,7.90
2018-05-25T09:03:28.882Z,8.90
2018-05-25T09:05:56.362Z,8.47
2018-05-25T09:08:23.826Z,8.60
2018-05-25T09:10:51.357Z,8.53
2018-05-25T09:13:18.797Z,8.63
2018-05-25T09:15:46.282Z,8.57
2018-05-25T09:18:13.758Z,7.87
2018-05-25T09:20:41.253Z,7.93
2018-05-25T09:23:08.713Z,7.60
2018-05-25T09:25:36.198Z,7.67
2018-05-25T09:28:03.657Z,8.03
2018-05-25T09:30:31.137Z,7.77
2018-05-25T09:32:58.606Z,6.80
2018-05-25T09:35:26.101Z,7.00
2018-05-25T09:37:53.558Z,7.87
2018-05-25T09:40:21.042Z,8.77
2018-05-25T09:42:48.505Z,7.60
2018-05-25T09:45:15.989Z,7.40
2018-05-25T09:47:43.451Z,7.97
2018-05-25T09:50:10.942Z,8.00
2018-05-25T09:52:38.410Z,8.10
2018-05-25T09:55:05.907Z,7.60
2018-05-25T09:57:33.369Z,7.77
2018-05-25T10:00:00.836Z,7.80
2018-05-25T10:02:28.313Z,6.90
2018-05-25T10:04:55.773Z,8.53
2018-05-25T10:07:23.266Z,8.40
2018-05-25T10:09:50.746Z,7.07
2018-05-25T10:12:18.245Z,9.27
2018-05-25T10:14:45.705Z,8.20
2018-05-25T10:17:13.204Z,9.30
2018-05-25T10:19:40.666Z,8.77
2018-05-25T10:22:08.150Z,8.30
2018-05-25T10:24:35.624Z,9.03
2018-05-25T10:27:03.123Z,8.77
2018-05-25T10:29:30.603Z,9.23
2018-05-25T10:31:58.087Z,8.13
2018-05-25T10:34:25.551Z,7.73
2018-05-25T10:36:53.034Z,7.93
2018-05-25T10:39:20.497Z,7.90
2018-05-25T10:41:48.009Z,8.23
2018-05-25T10:44:15.471Z,8.97
2018-05-25T10:46:42.959Z,8.43
2018-05-25T10:49:10.448Z,8.37
2018-05-25T10:51:37.938Z,7.97
2018-05-25T10:54:05.419Z,8.10
2018-05-25T10:56:32.910Z,8.30
2018-05-25T10:59:00.378Z,8.43
2018-05-25T11:01:35.153Z,7.80
2018-05-25T11:04:02.617Z,8.67
2018-05-25T11:06:30.097Z,8.07
2018-05-25T11:08:57.570Z,8.10
2018-05-25T11:11:25.049Z,7.50
2018-05-25T11:13:52.528Z,7.17
2018-05-25T11:16:20.017Z,7.57
2018-05-25T11:18:47.477Z,6.67
2018-05-25T11:21:14.965Z,7.80
2018-05-25T11:23:42.443Z,7.30
2018-05-25T11:26:09.913Z,6.60
2018-05-25T11:28:37.402Z,7.30
2018-05-25T11:31:04.866Z,7.20
2018-05-25T11:33:32.350Z,7.17
2018-05-25T11:35:59.820Z,7.90
2018-05-25T11:38:27.314Z,7.80
2018-05-25T11:40:54.783Z,7.80
2018-05-25T11:43:22.282Z,8.30
2018-05-25T11:45:49.758Z,7.50
2018-05-25T11:48:24.929Z,6.90
2018-05-25T11:50:52.398Z,6.47
2018-05-25T11:53:19.877Z,6.33
2018-05-25T11:55:47.347Z,6.07
2018-05-25T11:58:14.849Z,8.20
2018-05-25T12:00:42.322Z,7.07
2018-05-25T12:03:09.806Z,7.70
2018-05-25T12:05:37.281Z,7.73
2018-05-25T12:08:04.778Z,6.70
2018-05-25T12:10:32.241Z,7.50
2018-05-25T12:12:59.725Z,6.73
2018-05-25T12:15:27.216Z,7.47
2018-05-25T12:17:54.710Z,7.17
2018-05-25T12:20:22.179Z,7.47
2018-05-25T12:22:49.664Z,6.30
2018-05-25T12:25:17.139Z,7.67
2018-05-25T12:27:44.634Z,7.23
2018-05-25T12:30:12.129Z,6.70
2018-05-25T12:32:39.630Z,6.73
2018-05-25T12:35:07.098Z,6.93
2018-05-25T12:37:34.593Z,6.83
